Time;durP1;ratioP1;P1;durP2;ratioP2;P2;SDS_P1;SDS_P2;PMS_P1;PMS_P2;Temp;Humidity;BMP_temperature;BMP_pressure;BME280_temperature;BME280_humidity;BME280_pressure;Samples;Min_cycle;Max_cycle;Signal;HPM_P1;HPM_P2
2023/12/21 00:01:32;;;;;;;;;0.00;0.00;;;;;11.39;72.01;101136.31;5034854;28;57578;-71
2023/12/21 00:03:58;;;;;;;;;3.00;1.75;;;;;11.38;72.31;101131.97;5029839;28;45762;-71
2023/12/21 00:06:23;;;;;;;;;2.50;2.00;;;;;11.39;72.44;101125.84;5028684;28;73123;-72
2023/12/21 00:08:48;;;;;;;;;3.00;1.75;;;;;11.41;72.17;101129.28;5025058;28;68225;-71
2023/12/21 00:11:13;;;;;;;;;2.50;1.25;;;;;11.43;72.23;101127.47;5039997;28;71876;-73
2023/12/21 00:13:40;;;;;;;;;2.00;0.00;;;;;11.41;72.54;101118.78;5013056;28;74571;-71
2023/12/21 00:16:05;;;;;;;;;1.50;0.75;;;;;11.42;72.32;101103.94;5030020;28;45693;-73
2023/12/21 00:18:30;;;;;;;;;3.75;2.00;;;;;11.40;72.75;101099.59;5036327;28;45246;-72
2023/12/21 00:20:56;;;;;;;;;2.00;2.00;;;;;11.38;72.50;101114.50;5000465;28;66266;-73
2023/12/21 00:23:21;;;;;;;;;5.25;1.00;;;;;11.35;72.89;101109.34;5030961;28;74442;-72
2023/12/21 00:25:46;;;;;;;;;5.25;0.00;;;;;11.32;73.09;101091.06;5028333;28;73185;-72
2023/12/21 00:28:12;;;;;;;;;2.00;1.00;;;;;11.32;73.27;101095.44;5036966;28;53658;-71
2023/12/21 00:30:37;;;;;;;;;3.00;1.00;;;;;11.28;73.16;101092.03;5007800;28;45587;-72
2023/12/21 00:33:02;;;;;;;;;0.00;0.00;;;;;11.23;73.96;101086.03;5032355;28;75539;-71
2023/12/21 00:35:28;;;;;;;;;3.25;0.50;;;;;11.20;74.29;101084.34;5037249;28;46345;-72
2023/12/21 00:37:53;;;;;;;;;2.75;1.50;;;;;11.18;75.17;101091.38;5016628;28;65080;-73
2023/12/21 00:40:18;;;;;;;;;4.00;0.00;;;;;11.15;74.53;101075.72;5023236;28;72192;-72
2023/12/21 00:42:44;;;;;;;;;2.75;1.00;;;;;11.13;74.57;101067.06;5035172;28;53933;-72
2023/12/21 00:45:09;;;;;;;;;2.00;1.00;;;;;11.13;74.51;101074.06;5027026;28;48536;-73
2023/12/21 00:47:36;;;;;;;;;0.75;0.75;;;;;11.11;74.81;101076.72;5039493;28;45319;-71
2023/12/21 00:50:01;;;;;;;;;1.75;0.00;;;;;11.08;74.78;101076.78;5027443;28;72975;-72
2023/12/21 00:52:27;;;;;;;;;2.00;0.00;;;;;11.07;74.79;101072.44;5034477;28;45266;-72
2023/12/21 00:54:52;;;;;;;;;2.00;0.00;;;;;11.09;74.67;101061.94;5033863;28;68076;-72
2023/12/21 00:57:17;;;;;;;;;2.00;1.00;;;;;11.08;74.62;101055.81;5034493;28;65532;-73
2023/12/21 00:59:43;;;;;;;;;1.25;0.00;;;;;11.09;74.58;101051.47;5024524;28;60718;-73
2023/12/21 01:02:08;;;;;;;;;3.00;0.00;;;;;11.09;75.04;101054.94;5034936;28;66748;-73
2023/12/21 01:04:33;;;;;;;;;0.75;0.50;;;;;11.11;74.83;101053.13;5011754;28;72820;-72
2023/12/21 01:07:00;;;;;;;;;2.00;0.00;;;;;11.10;75.30;101046.19;5035088;28;45436;-72
2023/12/21 01:09:25;;;;;;;;;0.50;0.50;;;;;11.08;75.38;101045.34;5025644;28;45396;-73
2023/12/21 01:11:50;;;;;;;;;3.00;0.00;;;;;11.10;74.99;101050.56;5010599;28;45327;-72
2023/12/21 01:14:16;;;;;;;;;2.50;1.00;;;;;11.11;74.68;101055.75;5022968;28;72164;-73
2023/12/21 01:16:41;;;;;;;;;4.00;1.00;;;;;11.11;74.95;101036.56;5035045;28;45983;-73
2023/12/21 01:19:06;;;;;;;;;2.25;1.00;;;;;11.11;75.09;101036.56;5033038;28;65565;-73
2023/12/21 01:21:32;;;;;;;;;2.00;1.00;;;;;11.13;74.96;101037.38;5005240;28;46948;-72
2023/12/21 01:23:57;;;;;;;;;5.00;1.00;;;;;11.12;75.50;101036.53;5034281;28;54402;-73
2023/12/21 01:26:22;;;;;;;;;0.25;0.00;;;;;11.13;74.97;101024.28;5013781;28;46029;-73
2023/12/21 01:28:48;;;;;;;;;3.75;1.25;;;;;11.12;75.19;101020.81;5028856;28;68186;-72
2023/12/21 01:31:13;;;;;;;;;3.00;1.00;;;;;11.13;75.52;101030.38;5036392;28;64905;-72
2023/12/21 01:33:38;;;;;;;;;2.00;0.00;;;;;11.10;75.52;101020.00;5022932;28;45456;-73
2023/12/21 01:36:10;;;;;;;;;4.00;1.00;;;;;11.10;75.36;101008.66;5036745;28;45360;-73
2023/12/21 01:38:35;;;;;;;;;1.50;1.00;;;;;11.09;75.99;101004.31;5011938;28;45386;-73
2023/12/21 01:41:00;;;;;;;;;0.50;0.00;;;;;11.10;75.93;101011.25;5035351;28;57410;-72
2023/12/21 01:43:26;;;;;;;;;3.00;1.00;;;;;11.11;75.72;101000.75;5022524;28;53250;-71
2023/12/21 01:45:52;;;;;;;;;1.00;0.00;;;;;11.12;75.63;100999.88;5035669;28;45448;-71
2023/12/21 01:48:18;;;;;;;;;1.00;0.50;;;;;11.12;75.70;100997.25;5029330;28;45452;-71
2023/12/21 01:50:43;;;;;;;;;2.75;0.25;;;;;11.14;75.58;100992.81;5018779;28;46407;-72
2023/12/21 01:53:11;;;;;;;;;1.00;1.00;;;;;11.13;75.82;100985.84;5015601;28;45548;-73
2023/12/21 01:55:38;;;;;;;;;1.00;1.00;;;;;11.14;75.46;100979.72;5030768;28;45371;-73
2023/12/21 01:58:04;;;;;;;;;1.00;0.25;;;;;11.13;75.51;100964.06;5035418;28;45179;-73
2023/12/21 02:00:30;;;;;;;;;2.25;0.00;;;;;11.16;75.26;100962.22;5015909;28;45683;-73
2023/12/21 02:02:55;;;;;;;;;1.00;0.75;;;;;11.17;75.92;100960.44;5029879;28;45367;-73
2023/12/21 02:05:21;;;;;;;;;0.00;0.00;;;;;11.19;76.12;100963.88;5015187;28;45544;-72
2023/12/21 02:07:47;;;;;;;;;2.00;0.00;;;;;11.18;75.70;100954.31;5030556;28;45698;-72
2023/12/21 02:10:12;;;;;;;;;0.75;0.50;;;;;11.17;75.83;100945.59;5012737;28;48099;-71
2023/12/21 02:12:38;;;;;;;;;0.75;0.00;;;;;11.16;75.63;100945.63;5033982;28;45438;-72
2023/12/21 02:15:04;;;;;;;;;0.00;0.00;;;;;11.21;76.28;100938.53;5023694;28;62289;-72
2023/12/21 02:17:30;;;;;;;;;2.50;0.00;;;;;11.21;75.98;100939.38;5021667;28;45377;-72
2023/12/21 02:19:57;;;;;;;;;0.00;0.00;;;;;11.22;76.03;100932.38;5037148;28;74452;-73
2023/12/21 02:22:23;;;;;;;;;0.25;0.00;;;;;11.21;76.36;100939.38;5021071;28;51759;-72
2023/12/21 02:24:49;;;;;;;;;2.00;1.00;;;;;11.20;76.26;100924.53;5021878;28;45210;-72
2023/12/21 02:27:14;;;;;;;;;1.25;0.00;;;;;11.21;76.48;100922.81;5020276;28;45493;-72
2023/12/21 02:29:40;;;;;;;;;0.00;0.00;;;;;11.19;75.99;100919.34;5016332;28;45368;-72
2023/12/21 02:32:05;;;;;;;;;3.00;0.00;;;;;11.18;76.62;100928.13;5030518;28;45293;-72
2023/12/21 02:34:31;;;;;;;;;0.00;0.00;;;;;11.15;76.85;100923.81;5030430;28;45519;-72
2023/12/21 02:36:56;;;;;;;;;1.50;0.00;;;;;11.15;76.70;100936.06;5033676;28;45231;-72
2023/12/21 02:39:21;;;;;;;;;2.75;0.00;;;;;11.16;76.94;100941.25;5034728;28;73687;-72
2023/12/21 02:41:47;;;;;;;;;0.00;0.00;;;;;11.14;77.22;100927.34;5038506;28;68039;-72
2023/12/21 02:44:12;;;;;;;;;0.50;0.00;;;;;11.16;76.86;100937.78;5036495;28;45427;-72
2023/12/21 02:46:38;;;;;;;;;0.00;0.00;;;;;11.16;77.26;100928.16;5022987;28;70116;-72
2023/12/21 02:49:03;;;;;;;;;0.00;0.00;;;;;11.18;77.06;100928.97;5024324;28;45914;-72
2023/12/21 02:51:28;;;;;;;;;7.50;1.25;;;;;11.17;77.54;100918.53;5029551;28;45458;-72
2023/12/21 02:53:54;;;;;;;;;1.75;0.00;;;;;11.17;77.81;100919.41;5030874;28;67778;-72
2023/12/21 02:56:19;;;;;;;;;0.00;0.00;;;;;11.17;77.52;100921.16;5019949;28;71288;-72
2023/12/21 02:58:44;;;;;;;;;0.00;0.00;;;;;11.16;77.87;100917.69;5037790;28;75465;-72
2023/12/21 03:01:10;;;;;;;;;0.00;0.00;;;;;11.17;77.92;100921.16;5040170;28;70737;-73
2023/12/21 03:03:35;;;;;;;;;0.00;0.00;;;;;11.13;77.93;100903.81;5001315;28;45522;-72
2023/12/21 03:06:00;;;;;;;;;1.25;0.50;;;;;11.15;78.13;100904.63;5033785;28;70363;-73
2023/12/21 03:08:26;;;;;;;;;0.75;0.00;;;;;11.14;78.50;100897.69;5034814;28;47082;-73
2023/12/21 03:10:51;;;;;;;;;0.00;0.00;;;;;11.15;79.75;100902.84;5014389;28;70114;-72
2023/12/21 03:13:16;;;;;;;;;3.00;0.00;;;;;11.14;79.47;100898.53;5031621;28;60724;-72
2023/12/21 03:15:42;;;;;;;;;0.75;0.00;;;;;11.13;79.14;100888.09;5038339;28;61172;-72
2023/12/21 03:18:07;;;;;;;;;1.00;0.00;;;;;11.13;80.18;100898.56;5020752;28;46175;-72
2023/12/21 03:20:33;;;;;;;;;0.75;0.00;;;;;11.11;79.51;100897.75;5033095;28;59733;-72
2023/12/21 03:22:58;;;;;;;;;0.00;0.00;;;;;11.13;79.02;100895.94;5036473;28;50046;-72
2023/12/21 03:25:23;;;;;;;;;2.50;0.00;;;;;11.14;79.69;100889.81;5001105;28;69722;-72
2023/12/21 03:27:49;;;;;;;;;0.00;0.00;;;;;11.15;79.40;100888.91;5038438;28;75722;-72
2023/12/21 03:30:14;;;;;;;;;0.00;0.00;;;;;11.15;79.44;100870.56;5020527;28;45179;-72
2023/12/21 03:32:39;;;;;;;;;0.00;0.00;;;;;11.16;79.18;100872.31;5019594;28;50947;-72
2023/12/21 03:35:08;;;;;;;;;0.50;0.00;;;;;11.16;79.84;100867.06;5006729;28;45574;-72
2023/12/21 03:37:33;;;;;;;;;0.00;0.00;;;;;11.16;79.32;100861.81;5019693;28;47105;-72
2023/12/21 03:39:59;;;;;;;;;0.75;0.75;;;;;11.17;81.17;100866.16;5027931;28;53414;-72
2023/12/21 03:42:24;;;;;;;;;2.75;0.00;;;;;11.17;85.83;100859.16;5038417;28;45425;-72
2023/12/21 03:44:50;;;;;;;;;0.00;0.00;;;;;11.15;81.40;100849.63;5020427;28;45425;-72
2023/12/21 03:47:15;;;;;;;;;1.00;0.00;;;;;11.14;80.57;100856.63;5015033;28;64089;-72
2023/12/21 03:49:41;;;;;;;;;3.00;0.00;;;;;11.15;80.75;100860.09;5019209;28;66602;-71
2023/12/21 03:52:06;;;;;;;;;0.50;0.00;;;;;11.16;81.16;100846.97;5011546;28;45604;-72
2023/12/21 03:54:32;;;;;;;;;0.00;0.00;;;;;11.17;80.21;100839.94;5013242;28;45411;-72
2023/12/21 03:56:57;;;;;;;;;1.00;0.00;;;;;11.17;80.59;100830.34;5040130;28;75673;-72
2023/12/21 03:59:22;;;;;;;;;1.00;0.00;;;;;11.18;80.26;100826.81;5033047;28;57568;-72
2023/12/21 04:01:48;;;;;;;;;0.00;0.00;;;;;11.18;80.26;100828.59;5035974;28;58795;-72
2023/12/21 04:04:13;;;;;;;;;4.50;0.00;;;;;11.19;80.13;100804.97;5020998;28;45383;-72
2023/12/21 04:06:38;;;;;;;;;0.75;0.00;;;;;11.21;79.97;100791.84;5017315;28;63829;-72
2023/12/21 04:09:04;;;;;;;;;3.25;0.00;;;;;11.23;80.67;100781.31;5017522;28;62710;-73
2023/12/21 04:11:29;;;;;;;;;0.00;0.00;;;;;11.23;80.20;100765.59;5040712;28;45356;-72
2023/12/21 04:13:54;;;;;;;;;0.50;0.00;;;;;11.23;80.17;100765.59;5015456;28;45788;-72
2023/12/21 04:16:20;;;;;;;;;0.00;0.00;;;;;11.24;80.11;100765.53;5040994;28;75227;-72
2023/12/21 04:18:45;;;;;;;;;1.00;0.00;;;;;11.25;80.31;100758.53;5037056;28;72167;-72
2023/12/21 04:21:10;;;;;;;;;0.00;0.00;;;;;11.25;80.66;100761.16;5014308;28;67613;-72
2023/12/21 04:23:36;;;;;;;;;0.00;0.00;;;;;11.25;80.57;100761.16;5010054;28;45406;-72
2023/12/21 04:26:01;;;;;;;;;0.00;0.00;;;;;11.26;80.39;100765.47;5033942;28;47845;-72
2023/12/21 04:28:26;;;;;;;;;0.00;0.00;;;;;11.27;80.06;100765.44;5037569;28;45280;-72
2023/12/21 04:30:52;;;;;;;;;0.00;0.00;;;;;11.27;80.16;100768.06;5014824;28;69744;-72
2023/12/21 04:33:17;;;;;;;;;0.00;0.00;;;;;11.28;79.95;100759.31;5019596;28;61685;-72
2023/12/21 04:35:46;;;;;;;;;1.50;0.00;;;;;11.29;79.87;100760.16;5019179;28;45466;-72
2023/12/21 04:38:12;;;;;;;;;0.00;0.00;;;;;11.30;80.04;100760.13;5013353;28;45620;-72
2023/12/21 04:40:37;;;;;;;;;1.00;0.00;;;;;11.31;79.63;100748.72;5017045;28;45340;-72
2023/12/21 04:43:02;;;;;;;;;1.00;0.00;;;;;11.33;79.61;100754.81;5029996;28;64458;-72
2023/12/21 04:45:28;;;;;;;;;0.75;0.00;;;;;11.34;79.73;100760.88;5000576;28;47382;-72
2023/12/21 04:47:53;;;;;;;;;1.00;0.00;;;;;11.34;79.84;100753.88;5015691;28;73254;-72
2023/12/21 04:50:19;;;;;;;;;0.25;0.00;;;;;11.36;79.66;100748.59;5020307;28;45314;-72
2023/12/21 04:52:45;;;;;;;;;0.00;0.00;;;;;11.36;79.78;100744.19;4997321;28;45301;-72
2023/12/21 04:55:11;;;;;;;;;0.00;0.00;;;;;11.36;80.19;100753.84;5030377;28;47184;-73
2023/12/21 04:57:36;;;;;;;;;0.00;0.00;;;;;11.38;80.44;100744.16;5012844;28;67332;-73
2023/12/21 05:00:03;;;;;;;;;0.00;0.00;;;;;11.38;82.11;100758.16;5029315;28;45386;-73
2023/12/21 05:02:28;;;;;;;;;0.00;0.00;;;;;11.39;81.26;100757.22;5019079;28;45455;-73
2023/12/21 05:04:54;;;;;;;;;0.00;0.00;;;;;11.38;80.94;100733.69;5018475;28;64688;-73
2023/12/21 05:07:19;;;;;;;;;0.00;0.00;;;;;11.38;80.75;100741.53;5038827;28;72146;-72
2023/12/21 05:09:44;;;;;;;;;1.00;0.00;;;;;11.37;80.86;100731.97;5016943;28;54981;-71
2023/12/21 05:12:10;;;;;;;;;0.00;0.00;;;;;11.38;80.53;100729.31;5032732;28;56740;-73
2023/12/21 05:14:35;;;;;;;;;0.00;0.00;;;;;11.41;80.28;100723.13;5019641;28;71445;-71
2023/12/21 05:17:00;;;;;;;;;0.00;0.00;;;;;11.43;81.32;100720.44;5032774;28;45364;-71
2023/12/21 05:19:26;;;;;;;;;2.00;0.00;;;;;11.43;80.35;100717.84;5037205;28;45541;-71
2023/12/21 05:21:51;;;;;;;;;0.00;0.00;;;;;11.44;80.23;100725.66;5023963;28;45480;-71
2023/12/21 05:24:17;;;;;;;;;0.00;0.00;;;;;11.45;80.20;100727.34;5000448;28;47545;-71
2023/12/21 05:26:43;;;;;;;;;0.00;0.00;;;;;11.46;80.33;100726.44;5027891;28;45278;-72
2023/12/21 05:29:08;;;;;;;;;0.00;0.00;;;;;11.47;80.03;100724.69;5017693;28;60892;-71
2023/12/21 05:31:34;;;;;;;;;0.00;0.00;;;;;11.46;80.22;100720.38;5032011;28;65033;-71
2023/12/21 05:33:59;;;;;;;;;0.00;0.00;;;;;11.47;79.93;100722.91;5012826;28;45893;-71
2023/12/21 05:36:25;;;;;;;;;0.00;0.00;;;;;11.49;79.91;100721.13;5004258;28;48546;-71
2023/12/21 05:38:50;;;;;;;;;0.00;0.00;;;;;11.50;79.64;100725.44;5019850;28;45322;-71
2023/12/21 05:41:16;;;;;;;;;0.00;0.00;;;;;11.51;79.72;100729.78;5016582;28;45314;-71
2023/12/21 05:43:43;;;;;;;;;0.00;0.00;;;;;11.54;80.22;100734.94;5035173;28;46351;-71
2023/12/21 05:46:08;;;;;;;;;0.25;0.00;;;;;11.55;80.16;100726.16;5037357;28;45368;-71
2023/12/21 05:48:34;;;;;;;;;0.00;0.00;;;;;11.54;79.89;100702.63;5028321;28;45274;-71
2023/12/21 05:50:59;;;;;;;;;0.00;0.00;;;;;11.58;80.09;100705.09;5006230;28;45642;-72
2023/12/21 05:53:24;;;;;;;;;0.00;0.00;;;;;11.60;79.79;100694.56;5036498;28;45472;-71
2023/12/21 05:55:50;;;;;;;;;0.00;0.00;;;;;11.58;79.76;100676.28;5021980;28;63433;-72
2023/12/21 05:58:15;;;;;;;;;0.00;0.00;;;;;11.62;80.10;100670.94;5014655;28;69408;-72
2023/12/21 06:00:41;;;;;;;;;0.50;0.00;;;;;11.62;79.80;100665.69;5009039;28;60865;-72
2023/12/21 06:03:06;;;;;;;;;0.00;0.00;;;;;11.61;83.48;100670.06;5039741;28;46078;-72
2023/12/21 06:05:32;;;;;;;;;2.00;0.00;;;;;11.61;82.41;100664.81;5034116;28;45278;-71
2023/12/21 06:07:57;;;;;;;;;0.75;0.00;;;;;11.60;80.71;100652.63;5030922;28;45490;-71
2023/12/21 06:10:23;;;;;;;;;0.00;0.00;;;;;11.62;80.37;100661.31;5036779;28;45372;-72
2023/12/21 06:12:48;;;;;;;;;0.00;0.00;;;;;11.62;80.24;100660.47;5018279;28;77851;-71
2023/12/21 06:15:13;;;;;;;;;1.25;1.00;;;;;11.64;79.84;100658.63;5022668;28;71200;-72
2023/12/21 06:17:39;;;;;;;;;0.00;0.00;;;;;11.62;79.63;100666.53;5018462;28;45468;-72
2023/12/21 06:20:05;;;;;;;;;0.00;0.00;;;;;11.64;79.81;100667.34;5016120;28;71943;-72
2023/12/21 06:22:31;;;;;;;;;1.00;0.00;;;;;11.64;79.93;100659.50;5048321;28;46048;-72
2023/12/21 06:24:56;;;;;;;;;1.75;0.00;;;;;11.65;79.47;100650.72;5038285;28;46689;-72
2023/12/21 06:27:22;;;;;;;;;0.00;0.00;;;;;11.65;79.37;100662.94;4997657;28;52463;-72
2023/12/21 06:29:47;;;;;;;;;0.00;0.00;;;;;11.68;79.41;100686.47;5028871;28;45489;-70
2023/12/21 06:32:12;;;;;;;;;0.00;0.00;;;;;11.67;79.27;100672.50;5035632;28;46079;-71
2023/12/21 06:34:38;;;;;;;;;0.00;0.00;;;;;11.68;79.68;100675.97;5017199;28;45430;-71
2023/12/21 06:37:04;;;;;;;;;0.00;0.00;;;;;11.71;78.99;100700.31;5030246;28;45226;-70
2023/12/21 06:39:31;;;;;;;;;0.00;0.00;;;;;11.71;79.05;100689.84;5034686;28;45372;-71
2023/12/21 06:41:56;;;;;;;;;0.00;0.00;;;;;11.74;79.29;100694.13;5037416;28;46118;-71
2023/12/21 06:44:22;;;;;;;;;1.50;0.00;;;;;11.74;79.16;100679.25;5027473;28;45403;-71
2023/12/21 06:46:47;;;;;;;;;1.00;0.00;;;;;11.75;78.97;100678.34;5004200;28;68024;-72
2023/12/21 06:49:12;;;;;;;;;0.00;0.00;;;;;11.74;78.95;100675.78;5025857;28;45261;-71
2023/12/21 06:51:38;;;;;;;;;53.00;42.25;;;;;11.73;78.92;100681.91;5034357;28;70132;-72
2023/12/21 06:54:05;;;;;;;;;0.00;0.00;;;;;11.72;78.75;100690.69;5023680;28;68000;-72
2023/12/21 06:56:31;;;;;;;;;0.00;0.00;;;;;11.73;78.84;100701.13;5034962;28;45504;-73
2023/12/21 06:58:56;;;;;;;;;0.00;0.00;;;;;11.76;78.43;100687.94;5025078;28;45374;-74
2023/12/21 07:01:25;;;;;;;;;0.75;0.00;;;;;11.77;78.65;100692.28;5037613;28;75178;-72
2023/12/21 07:03:51;;;;;;;;;0.75;0.00;;;;;11.79;78.63;100681.72;5010097;28;45690;-72
2023/12/21 07:06:16;;;;;;;;;0.50;0.00;;;;;11.80;78.28;100678.19;5037181;28;45415;-72
2023/12/21 07:08:42;;;;;;;;;2.75;2.75;;;;;11.79;78.53;100676.47;5012503;28;62571;-73
2023/12/21 07:11:07;;;;;;;;;1.00;0.00;;;;;11.82;78.97;100701.75;5037506;28;45984;-72
2023/12/21 07:13:33;;;;;;;;;0.00;0.00;;;;;11.84;78.50;100713.03;5020676;28;45337;-73
2023/12/21 07:15:59;;;;;;;;;1.00;0.00;;;;;11.86;78.76;100704.19;5036489;28;45512;-73
2023/12/21 07:18:24;;;;;;;;;1.00;0.00;;;;;11.88;78.81;100714.63;5012143;28;46262;-72
2023/12/21 07:20:50;;;;;;;;;0.00;0.00;;;;;11.86;78.79;100701.56;5019448;28;60291;-72
2023/12/21 07:23:15;;;;;;;;;0.75;0.00;;;;;11.88;78.40;100705.03;5032762;28;45435;-73
2023/12/21 07:25:41;;;;;;;;;0.00;0.00;;;;;11.90;78.57;100700.63;5038874;28;48298;-73
2023/12/21 07:28:06;;;;;;;;;0.00;0.00;;;;;11.92;78.52;100700.56;5038030;28;45547;-71
2023/12/21 07:30:32;;;;;;;;;0.00;0.00;;;;;11.92;78.58;100692.69;5037472;28;45660;-69
2023/12/21 07:32:57;;;;;;;;;1.00;0.00;;;;;11.90;78.84;100698.00;5023454;28;45654;-73
2023/12/21 07:35:22;;;;;;;;;0.00;0.00;;;;;11.92;78.68;100706.66;5038720;28;45555;-72
2023/12/21 07:37:48;;;;;;;;;0.00;0.00;;;;;11.93;78.89;100702.25;5031408;28;45846;-72
2023/12/21 07:40:14;;;;;;;;;0.00;0.00;;;;;11.94;78.45;100694.34;5011544;28;57127;-72
2023/12/21 07:42:39;;;;;;;;;0.00;0.00;;;;;11.93;78.93;100687.41;5007876;28;50166;-72
2023/12/21 07:45:05;;;;;;;;;0.25;0.00;;;;;11.93;78.86;100684.78;5026383;28;45420;-72
2023/12/21 07:47:30;;;;;;;;;0.00;0.00;;;;;11.93;78.54;100676.03;5040211;28;45669;-72
2023/12/21 07:49:56;;;;;;;;;0.00;0.00;;;;;11.95;78.70;100687.34;5023515;28;47240;-74
2023/12/21 07:52:21;;;;;;;;;0.00;0.00;;;;;11.94;78.85;100678.63;5040575;28;72561;-68
2023/12/21 07:54:46;;;;;;;;;0.00;0.00;;;;;11.94;78.49;100675.16;5034313;28;46034;-75
2023/12/21 07:57:12;;;;;;;;;0.00;0.00;;;;;11.95;78.70;100666.34;5012542;28;74342;-78
2023/12/21 07:59:38;;;;;;;;;0.00;0.00;;;;;11.94;78.80;100662.03;5014119;28;45483;-76
2023/12/21 08:02:03;;;;;;;;;0.00;0.00;;;;;11.95;78.71;100664.63;5052949;28;45417;-81
2023/12/21 08:04:29;;;;;;;;;1.00;0.00;;;;;11.98;79.05;100673.28;5035416;28;45679;-78
2023/12/21 08:06:54;;;;;;;;;0.50;0.00;;;;;11.98;78.87;100663.63;5028535;28;71593;-76
2023/12/21 08:09:20;;;;;;;;;0.00;0.00;;;;;12.01;78.60;100657.44;5037432;28;56720;-79
2023/12/21 08:11:45;;;;;;;;;0.00;0.00;;;;;12.01;79.08;100663.53;5025199;28;45273;-83
2023/12/21 08:14:10;;;;;;;;;0.50;0.00;;;;;12.04;78.92;100654.69;5032989;28;58657;-82
2023/12/21 08:16:36;;;;;;;;;0.50;0.00;;;;;12.05;78.96;100635.44;5024607;28;60307;-80
2023/12/21 08:19:02;;;;;;;;;0.50;0.00;;;;;12.07;78.94;100628.38;5023471;28;46300;-76
2023/12/21 08:21:27;;;;;;;;;0.75;0.00;;;;;12.07;78.46;100641.47;5030608;28;45328;-77
2023/12/21 08:23:52;;;;;;;;;0.00;0.00;;;;;12.11;78.73;100654.44;5033054;28;51896;-74
2023/12/21 08:26:18;;;;;;;;;1.50;0.00;;;;;12.15;78.59;100634.22;5029487;28;45505;-73
2023/12/21 08:28:43;;;;;;;;;0.00;0.00;;;;;12.20;78.42;100627.03;5035832;28;46157;-77
2023/12/21 08:31:09;;;;;;;;;0.00;0.00;;;;;12.21;78.28;100633.97;5036158;28;70830;-71
2023/12/21 08:33:38;;;;;;;;;0.00;0.00;;;;;12.25;78.33;100635.59;5030012;28;45375;-76
2023/12/21 08:36:04;;;;;;;;;0.00;0.00;;;;;12.27;78.38;100617.16;5010351;28;45556;-69
2023/12/21 08:38:29;;;;;;;;;0.25;0.00;;;;;12.29;78.46;100623.22;5007991;28;46470;-68
2023/12/21 08:40:55;;;;;;;;;0.00;0.00;;;;;12.32;78.26;100609.97;5036786;28;45476;-68
2023/12/21 08:43:20;;;;;;;;;0.00;0.00;;;;;12.34;78.24;100630.03;5013679;28;45377;-74
2023/12/21 08:45:45;;;;;;;;;0.00;0.00;;;;;12.35;77.71;100641.38;5032316;28;45476;-68
2023/12/21 08:48:11;;;;;;;;;0.00;0.00;;;;;12.38;78.10;100641.25;5028208;28;74293;-72
2023/12/21 08:50:36;;;;;;;;;0.50;0.00;;;;;12.40;77.73;100641.22;5008349;28;66184;-70
2023/12/21 08:53:02;;;;;;;;;1.00;0.00;;;;;12.42;77.82;100657.75;5028188;28;45890;-69
2023/12/21 08:55:29;;;;;;;;;1.00;0.00;;;;;12.43;77.77;100667.31;5028002;28;45550;-69
2023/12/21 08:57:55;;;;;;;;;0.00;0.00;;;;;12.43;77.45;100659.44;5032824;28;46127;-69
2023/12/21 09:00:21;;;;;;;;;0.00;0.00;;;;;12.43;78.03;100660.31;5028291;28;45543;-67
2023/12/21 09:02:46;;;;;;;;;0.00;0.00;;;;;12.47;78.37;100669.78;5031992;28;51800;-67
2023/12/21 09:05:12;;;;;;;;;0.75;0.00;;;;;12.48;78.54;100657.53;5028250;28;45509;-67
2023/12/21 09:07:38;;;;;;;;;0.00;0.00;;;;;12.46;78.66;100657.56;5025085;28;48356;-72
2023/12/21 09:10:03;;;;;;;;;1.00;0.00;;;;;12.51;78.31;100668.75;5010927;28;46039;-72
2023/12/21 09:12:29;;;;;;;;;0.50;0.00;;;;;12.54;78.21;100652.06;5017080;28;45590;-72
2023/12/21 09:14:54;;;;;;;;;0.50;0.00;;;;;12.56;77.91;100646.75;5029474;28;45534;-73
2023/12/21 09:17:20;;;;;;;;;0.00;0.00;;;;;12.58;78.01;100650.19;5029510;28;45481;-73
2023/12/21 09:19:45;;;;;;;;;1.00;1.00;;;;;12.58;77.95;100642.31;5009317;28;45512;-76
2023/12/21 09:22:11;;;;;;;;;0.00;0.00;;;;;12.62;77.62;100647.38;5012241;28;45463;-71
2023/12/21 09:24:39;;;;;;;;;1.25;0.25;;;;;12.66;78.07;100646.38;5013699;28;45478;-69
2023/12/21 09:27:05;;;;;;;;;0.00;0.00;;;;;12.70;77.98;100647.94;5031329;28;74138;-70
2023/12/21 09:29:30;;;;;;;;;0.50;0.50;;;;;12.71;77.92;100644.44;5015589;28;47835;-70
2023/12/21 09:31:56;;;;;;;;;1.00;0.00;;;;;12.72;78.29;100640.88;5031898;28;46764;-73
2023/12/21 09:34:21;;;;;;;;;0.00;0.00;;;;;12.75;78.33;100639.91;5030042;28;45502;-71
2023/12/21 09:36:48;;;;;;;;;0.00;0.00;;;;;12.75;78.20;100642.53;5037103;28;47550;-71
2023/12/21 09:39:13;;;;;;;;;0.00;0.00;;;;;12.75;78.20;100641.66;5015168;28;72622;-75
2023/12/21 09:41:39;;;;;;;;;0.00;0.00;;;;;12.73;78.97;100650.47;5037974;28;45255;-71
2023/12/21 09:44:05;;;;;;;;;0.00;0.00;;;;;12.72;78.93;100630.38;5021414;28;45491;-77
2023/12/21 09:46:38;;;;;;;;;2.00;0.25;;;;;12.74;78.55;100625.06;5017973;28;46647;-76
2023/12/21 09:49:06;;;;;;;;;0.00;0.00;;;;;12.75;78.74;100623.28;5036847;28;45480;-72
2023/12/21 09:51:34;;;;;;;;;0.00;0.00;;;;;12.75;78.25;100634.66;5027654;28;45395;-78
2023/12/21 09:54:00;;;;;;;;;0.75;0.00;;;;;12.75;78.82;100631.16;5003785;28;45620;-75
2023/12/21 09:56:26;;;;;;;;;0.00;0.00;;;;;12.71;80.55;100623.41;5020584;28;45452;-77
2023/12/21 09:58:52;;;;;;;;;0.00;0.00;;;;;12.66;79.13;100614.84;5018852;28;45843;-79
2023/12/21 10:01:17;;;;;;;;;0.00;0.00;;;;;12.65;80.76;100630.66;5012745;28;45579;-83
2023/12/21 10:03:43;;;;;;;;;0.25;0.25;;;;;12.64;79.57;100637.69;5015413;28;45410;-81
2023/12/21 10:06:08;;;;;;;;;1.75;1.00;;;;;12.65;79.72;100643.78;5033000;28;45444;-81
2023/12/21 10:08:33;;;;;;;;;1.00;0.25;;;;;12.63;80.13;100637.75;5032326;28;51667;-82
2023/12/21 10:11:03;;;;;;;;;1.00;1.00;;;;;12.63;79.95;100624.63;5032916;28;49010;-84
2023/12/21 10:13:28;;;;;;;;;0.00;0.00;;;;;12.61;79.95;100624.69;5010588;28;45480;-83
2023/12/21 10:16:00;;;;;;;;;1.00;1.00;;;;;12.61;79.93;100623.81;5012986;28;66171;-80
2023/12/21 10:18:26;;;;;;;;;0.75;0.75;;;;;12.60;80.78;100630.81;5006445;28;45694;-75
2023/12/21 10:20:53;;;;;;;;;2.00;0.00;;;;;12.60;80.39;100625.56;5025200;28;45252;-82
2023/12/21 10:23:19;;;;;;;;;1.00;1.00;;;;;12.64;80.31;100634.19;5026178;28;45461;-82
2023/12/21 10:25:46;;;;;;;;;3.50;1.50;;;;;12.64;80.10;100619.31;5015966;28;45550;-76
2023/12/21 10:28:11;;;;;;;;;3.25;2.00;;;;;12.69;80.06;100617.34;5025788;28;45341;-76
2023/12/21 10:30:37;;;;;;;;;1.00;0.25;;;;;12.73;79.93;100621.59;5011887;28;53968;-76
2023/12/21 10:33:03;;;;;;;;;2.00;0.75;;;;;12.71;80.28;100618.16;5032804;28;45491;-76
2023/12/21 10:35:28;;;;;;;;;0.00;0.00;;;;;12.73;80.20;100611.09;5016656;28;46255;-75
2023/12/21 10:37:54;;;;;;;;;3.75;1.75;;;;;12.77;80.28;100603.94;5035232;28;68467;-75
2023/12/21 10:40:22;;;;;;;;;1.50;1.00;;;;;12.79;80.03;100617.88;5015546;28;45351;-75
2023/12/21 10:42:48;;;;;;;;;3.00;2.00;;;;;12.80;82.51;100623.97;5017456;28;45411;-77
2023/12/21 10:45:16;;;;;;;;;1.50;0.75;;;;;12.79;81.22;100624.91;5028082;28;45455;-78
2023/12/21 10:47:55;;;;;;;;;1.00;0.00;;;;;12.78;80.48;100623.19;5015790;28;45555;-76
2023/12/21 10:50:20;;;;;;;;;3.00;1.00;;;;;12.78;79.99;100623.19;5033215;28;45705;-69
2023/12/21 10:52:47;;;;;;;;;2.00;1.00;;;;;12.78;80.55;100624.03;5021636;28;45815;-74
2023/12/21 10:55:16;;;;;;;;;0.00;0.00;;;;;12.79;80.08;100628.38;5030811;28;45757;-75
2023/12/21 10:57:42;;;;;;;;;3.00;2.00;;;;;12.80;80.29;100606.47;5039177;28;45955;-73
2023/12/21 11:00:12;;;;;;;;;5.00;2.50;;;;;12.80;80.60;100605.59;5035983;28;45531;-73
2023/12/21 11:02:42;;;;;;;;;3.50;1.75;;;;;12.83;80.88;100597.59;5025699;28;45610;-71
2023/12/21 11:05:08;;;;;;;;;6.00;4.25;;;;;12.80;85.31;100593.34;5007805;28;46868;-70
2023/12/21 11:07:33;;;;;;;;;6.00;2.00;;;;;12.86;80.95;100597.50;5021244;28;45435;-68
2023/12/21 11:10:00;;;;;;;;;2.00;0.75;;;;;12.89;80.14;100587.72;5023465;28;45424;-73
2023/12/21 11:12:25;;;;;;;;;6.50;3.00;;;;;12.92;80.16;100570.97;5019416;28;45431;-76
2023/12/21 11:14:51;;;;;;;;;5.25;3.00;;;;;12.95;80.12;100573.47;5024298;28;45691;-77
2023/12/21 11:17:17;;;;;;;;;5.00;3.00;;;;;12.98;79.57;100551.47;5021080;28;45266;-74